TAF Text Data
IDs:
Format:
Raw Decoded Include METAR

Data at: 1111 UTC 07 Dec 2022

KBGR 070520Z 0706/0806 17006KT 6SM -RA BR OVC025
  FM070900 09003KT 4SM -RA BR OVC007
  FM071300 11004KT 2SM RA BR OVC005 WS020/17035KT
  FM071800 15008KT 2SM -RA BR OVC004
  FM080000 17005KT 3SM RA BR OVC003